sensor_id;sensor_type;location;lat;lon;timestamp;P1;durP1;ratioP1;P2;durP2;ratioP2
30723;SDS011;17473;52.286;20.930;2022-12-29T00:01:41;12.70;;;5.77;;
30723;SDS011;17473;52.286;20.930;2022-12-29T00:04:09;10.07;;;5.50;;
30723;SDS011;17473;52.286;20.930;2022-12-29T00:06:41;11.83;;;5.97;;
30723;SDS011;17473;52.286;20.930;2022-12-29T00:09:10;9.23;;;6.07;;
30723;SDS011;17473;52.286;20.930;2022-12-29T00:11:38;9.40;;;5.83;;
30723;SDS011;17473;52.286;20.930;2022-12-29T00:14:07;13.63;;;6.03;;
30723;SDS011;17473;52.286;20.930;2022-12-29T00:16:55;8.63;;;5.40;;
30723;SDS011;17473;52.286;20.930;2022-12-29T00:19:22;10.27;;;6.53;;
30723;SDS011;17473;52.286;20.930;2022-12-29T00:22:22;9.90;;;5.63;;
30723;SDS011;17473;52.286;20.930;2022-12-29T00:25:09;10.53;;;5.97;;
30723;SDS011;17473;52.286;20.930;2022-12-29T00:27:57;15.90;;;5.93;;
30723;SDS011;17473;52.286;20.930;2022-12-29T00:30:43;13.70;;;6.77;;
30723;SDS011;17473;52.286;20.930;2022-12-29T00:33:29;10.70;;;6.07;;
30723;SDS011;17473;52.286;20.930;2022-12-29T00:36:22;11.90;;;6.33;;
30723;SDS011;17473;52.286;20.930;2022-12-29T00:38:50;10.37;;;6.13;;
30723;SDS011;17473;52.286;20.930;2022-12-29T00:41:48;10.53;;;5.70;;
30723;SDS011;17473;52.286;20.930;2022-12-29T00:44:34;12.23;;;6.27;;
30723;SDS011;17473;52.286;20.930;2022-12-29T00:47:01;11.23;;;6.33;;
30723;SDS011;17473;52.286;20.930;2022-12-29T00:49:29;10.57;;;5.60;;
30723;SDS011;17473;52.286;20.930;2022-12-29T00:52:03;10.90;;;5.93;;
30723;SDS011;17473;52.286;20.930;2022-12-29T00:54:33;11.93;;;5.63;;
30723;SDS011;17473;52.286;20.930;2022-12-29T00:57:03;11.67;;;6.13;;
30723;SDS011;17473;52.286;20.930;2022-12-29T00:59:34;12.67;;;6.80;;
30723;SDS011;17473;52.286;20.930;2022-12-29T01:02:06;9.40;;;5.33;;
30723;SDS011;17473;52.286;20.930;2022-12-29T01:04:34;9.97;;;4.97;;
30723;SDS011;17473;52.286;20.930;2022-12-29T01:07:01;8.70;;;5.33;;
30723;SDS011;17473;52.286;20.930;2022-12-29T01:09:29;16.17;;;6.30;;
30723;SDS011;17473;52.286;20.930;2022-12-29T01:12:15;10.50;;;5.63;;
30723;SDS011;17473;52.286;20.930;2022-12-29T01:14:43;8.10;;;4.90;;
30723;SDS011;17473;52.286;20.930;2022-12-29T01:17:10;8.13;;;4.77;;
30723;SDS011;17473;52.286;20.930;2022-12-29T01:19:37;9.20;;;4.70;;
30723;SDS011;17473;52.286;20.930;2022-12-29T01:22:04;9.20;;;4.43;;
30723;SDS011;17473;52.286;20.930;2022-12-29T01:24:32;9.23;;;5.20;;
30723;SDS011;17473;52.286;20.930;2022-12-29T01:26:59;9.13;;;5.10;;
30723;SDS011;17473;52.286;20.930;2022-12-29T01:29:26;11.10;;;4.97;;
30723;SDS011;17473;52.286;20.930;2022-12-29T01:31:53;10.43;;;5.43;;
30723;SDS011;17473;52.286;20.930;2022-12-29T01:34:20;10.67;;;5.37;;
30723;SDS011;17473;52.286;20.930;2022-12-29T01:36:47;9.17;;;4.83;;
30723;SDS011;17473;52.286;20.930;2022-12-29T01:39:14;14.03;;;5.20;;
30723;SDS011;17473;52.286;20.930;2022-12-29T01:41:41;10.63;;;5.17;;
30723;SDS011;17473;52.286;20.930;2022-12-29T01:47:30;7.67;;;4.60;;
30723;SDS011;17473;52.286;20.930;2022-12-29T01:50:13;9.27;;;4.83;;
30723;SDS011;17473;52.286;20.930;2022-12-29T01:53:11;9.23;;;4.83;;
30723;SDS011;17473;52.286;20.930;2022-12-29T01:55:48;7.73;;;4.80;;
30723;SDS011;17473;52.286;20.930;2022-12-29T01:58:21;10.60;;;5.27;;
30723;SDS011;17473;52.286;20.930;2022-12-29T02:00:53;10.17;;;4.43;;
30723;SDS011;17473;52.286;20.930;2022-12-29T02:03:20;7.03;;;4.30;;
30723;SDS011;17473;52.286;20.930;2022-12-29T02:05:55;8.33;;;4.77;;
30723;SDS011;17473;52.286;20.930;2022-12-29T02:08:29;9.37;;;4.70;;
30723;SDS011;17473;52.286;20.930;2022-12-29T02:10:57;9.53;;;4.93;;
30723;SDS011;17473;52.286;20.930;2022-12-29T02:13:27;8.23;;;4.40;;
30723;SDS011;17473;52.286;20.930;2022-12-29T02:22:21;8.30;;;4.50;;
30723;SDS011;17473;52.286;20.930;2022-12-29T02:25:38;7.37;;;4.07;;
30723;SDS011;17473;52.286;20.930;2022-12-29T02:31:58;6.27;;;4.43;;
30723;SDS011;17473;52.286;20.930;2022-12-29T02:37:24;10.50;;;4.23;;
30723;SDS011;17473;52.286;20.930;2022-12-29T02:40:23;8.63;;;4.07;;
30723;SDS011;17473;52.286;20.930;2022-12-29T02:45:31;10.10;;;4.27;;
30723;SDS011;17473;52.286;20.930;2022-12-29T02:48:32;11.00;;;4.83;;
30723;SDS011;17473;52.286;20.930;2022-12-29T02:51:27;9.20;;;5.03;;
30723;SDS011;17473;52.286;20.930;2022-12-29T02:54:20;7.70;;;3.70;;
30723;SDS011;17473;52.286;20.930;2022-12-29T02:59:51;10.40;;;4.23;;
30723;SDS011;17473;52.286;20.930;2022-12-29T03:06:11;6.27;;;3.80;;
30723;SDS011;17473;52.286;20.930;2022-12-29T03:11:52;9.97;;;4.47;;
30723;SDS011;17473;52.286;20.930;2022-12-29T03:15:04;8.67;;;4.73;;
30723;SDS011;17473;52.286;20.930;2022-12-29T03:18:02;8.20;;;4.77;;
30723;SDS011;17473;52.286;20.930;2022-12-29T03:20:52;6.83;;;3.90;;
30723;SDS011;17473;52.286;20.930;2022-12-29T03:23:24;6.33;;;3.87;;
30723;SDS011;17473;52.286;20.930;2022-12-29T03:25:55;5.60;;;3.60;;
30723;SDS011;17473;52.286;20.930;2022-12-29T03:28:29;8.10;;;4.40;;
30723;SDS011;17473;52.286;20.930;2022-12-29T03:31:02;7.17;;;3.87;;
30723;SDS011;17473;52.286;20.930;2022-12-29T03:33:30;5.80;;;3.70;;
30723;SDS011;17473;52.286;20.930;2022-12-29T03:36:00;10.67;;;4.40;;
30723;SDS011;17473;52.286;20.930;2022-12-29T03:38:37;9.10;;;4.10;;
30723;SDS011;17473;52.286;20.930;2022-12-29T03:41:13;6.67;;;3.70;;
30723;SDS011;17473;52.286;20.930;2022-12-29T03:43:46;7.27;;;3.50;;
30723;SDS011;17473;52.286;20.930;2022-12-29T03:46:14;9.73;;;3.90;;
30723;SDS011;17473;52.286;20.930;2022-12-29T03:48:41;8.93;;;3.97;;
30723;SDS011;17473;52.286;20.930;2022-12-29T03:51:08;7.47;;;4.57;;
30723;SDS011;17473;52.286;20.930;2022-12-29T03:53:35;10.40;;;4.10;;
30723;SDS011;17473;52.286;20.930;2022-12-29T03:56:02;5.90;;;3.90;;
30723;SDS011;17473;52.286;20.930;2022-12-29T03:58:30;5.87;;;3.50;;
30723;SDS011;17473;52.286;20.930;2022-12-29T04:00:57;5.70;;;3.80;;
30723;SDS011;17473;52.286;20.930;2022-12-29T04:03:24;6.97;;;4.60;;
30723;SDS011;17473;52.286;20.930;2022-12-29T04:05:51;8.47;;;4.23;;
30723;SDS011;17473;52.286;20.930;2022-12-29T04:08:18;7.53;;;4.53;;
30723;SDS011;17473;52.286;20.930;2022-12-29T04:10:45;6.33;;;4.13;;
30723;SDS011;17473;52.286;20.930;2022-12-29T04:13:13;7.63;;;4.40;;
30723;SDS011;17473;52.286;20.930;2022-12-29T04:15:41;5.80;;;3.93;;
30723;SDS011;17473;52.286;20.930;2022-12-29T04:18:11;7.23;;;3.47;;
30723;SDS011;17473;52.286;20.930;2022-12-29T04:20:39;6.50;;;3.83;;
30723;SDS011;17473;52.286;20.930;2022-12-29T04:23:26;7.53;;;3.67;;
30723;SDS011;17473;52.286;20.930;2022-12-29T04:25:54;6.60;;;4.07;;
30723;SDS011;17473;52.286;20.930;2022-12-29T04:28:21;11.53;;;4.40;;
30723;SDS011;17473;52.286;20.930;2022-12-29T04:30:48;6.33;;;4.07;;
30723;SDS011;17473;52.286;20.930;2022-12-29T04:33:15;8.60;;;4.00;;
30723;SDS011;17473;52.286;20.930;2022-12-29T04:35:44;9.03;;;4.17;;
30723;SDS011;17473;52.286;20.930;2022-12-29T04:38:12;7.30;;;3.97;;
30723;SDS011;17473;52.286;20.930;2022-12-29T04:40:40;8.80;;;4.13;;
30723;SDS011;17473;52.286;20.930;2022-12-29T04:43:09;6.67;;;3.90;;
30723;SDS011;17473;52.286;20.930;2022-12-29T04:45:36;7.33;;;4.10;;
30723;SDS011;17473;52.286;20.930;2022-12-29T04:48:03;8.17;;;4.60;;
30723;SDS011;17473;52.286;20.930;2022-12-29T04:50:31;8.53;;;4.13;;
30723;SDS011;17473;52.286;20.930;2022-12-29T04:52:58;8.47;;;4.80;;
30723;SDS011;17473;52.286;20.930;2022-12-29T04:55:25;7.43;;;4.50;;
30723;SDS011;17473;52.286;20.930;2022-12-29T04:57:52;7.80;;;4.27;;
30723;SDS011;17473;52.286;20.930;2022-12-29T05:00:19;9.27;;;4.30;;
30723;SDS011;17473;52.286;20.930;2022-12-29T05:02:47;7.57;;;4.57;;
30723;SDS011;17473;52.286;20.930;2022-12-29T05:05:14;8.50;;;4.67;;
30723;SDS011;17473;52.286;20.930;2022-12-29T05:07:42;9.73;;;4.90;;
30723;SDS011;17473;52.286;20.930;2022-12-29T05:10:09;10.13;;;5.07;;
30723;SDS011;17473;52.286;20.930;2022-12-29T05:12:37;11.40;;;5.27;;
30723;SDS011;17473;52.286;20.930;2022-12-29T05:15:05;9.70;;;5.33;;
30723;SDS011;17473;52.286;20.930;2022-12-29T05:17:37;11.73;;;4.70;;
30723;SDS011;17473;52.286;20.930;2022-12-29T05:20:04;10.73;;;5.57;;
30723;SDS011;17473;52.286;20.930;2022-12-29T05:22:33;10.50;;;5.93;;
30723;SDS011;17473;52.286;20.930;2022-12-29T05:25:00;9.73;;;5.10;;
30723;SDS011;17473;52.286;20.930;2022-12-29T05:27:27;9.30;;;5.23;;
30723;SDS011;17473;52.286;20.930;2022-12-29T05:29:54;13.20;;;5.93;;
30723;SDS011;17473;52.286;20.930;2022-12-29T05:32:21;9.27;;;5.20;;
30723;SDS011;17473;52.286;20.930;2022-12-29T05:34:48;10.17;;;5.57;;
30723;SDS011;17473;52.286;20.930;2022-12-29T05:37:15;11.33;;;6.00;;
30723;SDS011;17473;52.286;20.930;2022-12-29T05:39:43;10.67;;;5.90;;
30723;SDS011;17473;52.286;20.930;2022-12-29T05:42:10;10.97;;;5.63;;
30723;SDS011;17473;52.286;20.930;2022-12-29T05:44:37;13.20;;;6.23;;
30723;SDS011;17473;52.286;20.930;2022-12-29T05:47:04;12.63;;;5.40;;
30723;SDS011;17473;52.286;20.930;2022-12-29T05:49:32;11.00;;;5.83;;
30723;SDS011;17473;52.286;20.930;2022-12-29T05:51:59;13.77;;;6.10;;
30723;SDS011;17473;52.286;20.930;2022-12-29T05:54:26;14.47;;;6.70;;
30723;SDS011;17473;52.286;20.930;2022-12-29T05:56:53;10.97;;;6.37;;
30723;SDS011;17473;52.286;20.930;2022-12-29T05:59:20;11.67;;;6.03;;
30723;SDS011;17473;52.286;20.930;2022-12-29T06:01:47;12.57;;;5.93;;
30723;SDS011;17473;52.286;20.930;2022-12-29T06:04:14;12.70;;;5.90;;
30723;SDS011;17473;52.286;20.930;2022-12-29T06:06:42;13.67;;;6.30;;
30723;SDS011;17473;52.286;20.930;2022-12-29T06:09:09;15.07;;;6.63;;
30723;SDS011;17473;52.286;20.930;2022-12-29T06:11:37;12.00;;;6.37;;
30723;SDS011;17473;52.286;20.930;2022-12-29T06:14:04;11.27;;;5.57;;
30723;SDS011;17473;52.286;20.930;2022-12-29T06:16:31;9.73;;;5.63;;
30723;SDS011;17473;52.286;20.930;2022-12-29T06:18:58;12.77;;;6.40;;
30723;SDS011;17473;52.286;20.930;2022-12-29T06:21:25;11.13;;;5.63;;
30723;SDS011;17473;52.286;20.930;2022-12-29T06:23:52;14.03;;;6.40;;
30723;SDS011;17473;52.286;20.930;2022-12-29T06:26:19;11.30;;;6.30;;
30723;SDS011;17473;52.286;20.930;2022-12-29T06:28:46;14.23;;;6.37;;
30723;SDS011;17473;52.286;20.930;2022-12-29T06:31:14;11.83;;;5.57;;
30723;SDS011;17473;52.286;20.930;2022-12-29T06:33:41;13.60;;;5.97;;
30723;SDS011;17473;52.286;20.930;2022-12-29T06:36:13;10.03;;;5.60;;
30723;SDS011;17473;52.286;20.930;2022-12-29T06:38:40;13.53;;;6.27;;
30723;SDS011;17473;52.286;20.930;2022-12-29T06:41:07;9.77;;;5.47;;
30723;SDS011;17473;52.286;20.930;2022-12-29T06:43:34;13.13;;;5.53;;
30723;SDS011;17473;52.286;20.930;2022-12-29T06:46:04;10.70;;;6.20;;
30723;SDS011;17473;52.286;20.930;2022-12-29T06:48:32;13.40;;;6.23;;
30723;SDS011;17473;52.286;20.930;2022-12-29T06:50:59;11.97;;;5.93;;
30723;SDS011;17473;52.286;20.930;2022-12-29T06:53:26;13.03;;;5.80;;
30723;SDS011;17473;52.286;20.930;2022-12-29T06:55:53;8.73;;;5.43;;
30723;SDS011;17473;52.286;20.930;2022-12-29T06:58:20;11.13;;;6.03;;
30723;SDS011;17473;52.286;20.930;2022-12-29T07:00:47;12.23;;;6.03;;
30723;SDS011;17473;52.286;20.930;2022-12-29T07:03:15;12.67;;;5.40;;
30723;SDS011;17473;52.286;20.930;2022-12-29T07:05:42;10.47;;;6.03;;
30723;SDS011;17473;52.286;20.930;2022-12-29T07:08:09;14.10;;;5.97;;
30723;SDS011;17473;52.286;20.930;2022-12-29T07:10:36;10.17;;;5.73;;
30723;SDS011;17473;52.286;20.930;2022-12-29T07:13:03;14.60;;;6.20;;
30723;SDS011;17473;52.286;20.930;2022-12-29T07:15:30;13.37;;;6.70;;
30723;SDS011;17473;52.286;20.930;2022-12-29T07:17:57;11.07;;;5.57;;
30723;SDS011;17473;52.286;20.930;2022-12-29T07:20:24;10.63;;;6.07;;
30723;SDS011;17473;52.286;20.930;2022-12-29T07:22:52;11.43;;;6.23;;
30723;SDS011;17473;52.286;20.930;2022-12-29T07:25:19;11.80;;;5.90;;
30723;SDS011;17473;52.286;20.930;2022-12-29T07:27:47;10.73;;;5.50;;
30723;SDS011;17473;52.286;20.930;2022-12-29T07:30:14;15.80;;;6.57;;
30723;SDS011;17473;52.286;20.930;2022-12-29T07:32:42;11.27;;;5.47;;
30723;SDS011;17473;52.286;20.930;2022-12-29T07:35:09;9.03;;;4.87;;
30723;SDS011;17473;52.286;20.930;2022-12-29T07:37:36;12.37;;;6.03;;
30723;SDS011;17473;52.286;20.930;2022-12-29T07:40:03;10.60;;;5.17;;
30723;SDS011;17473;52.286;20.930;2022-12-29T07:42:31;14.03;;;6.07;;
30723;SDS011;17473;52.286;20.930;2022-12-29T07:44:59;11.50;;;5.60;;
30723;SDS011;17473;52.286;20.930;2022-12-29T07:47:26;9.73;;;5.60;;
30723;SDS011;17473;52.286;20.930;2022-12-29T07:49:53;9.90;;;5.00;;
30723;SDS011;17473;52.286;20.930;2022-12-29T07:52:20;8.67;;;4.73;;
30723;SDS011;17473;52.286;20.930;2022-12-29T07:54:48;10.57;;;5.33;;
30723;SDS011;17473;52.286;20.930;2022-12-29T07:57:14;9.87;;;4.63;;
30723;SDS011;17473;52.286;20.930;2022-12-29T07:59:42;11.13;;;5.27;;
30723;SDS011;17473;52.286;20.930;2022-12-29T08:02:10;8.63;;;4.73;;
30723;SDS011;17473;52.286;20.930;2022-12-29T08:04:40;7.53;;;4.87;;
30723;SDS011;17473;52.286;20.930;2022-12-29T08:07:07;7.87;;;4.90;;
30723;SDS011;17473;52.286;20.930;2022-12-29T08:09:34;10.03;;;4.63;;
30723;SDS011;17473;52.286;20.930;2022-12-29T08:12:01;8.27;;;4.63;;
30723;SDS011;17473;52.286;20.930;2022-12-29T08:14:28;10.00;;;4.50;;
30723;SDS011;17473;52.286;20.930;2022-12-29T08:16:55;11.43;;;4.77;;
30723;SDS011;17473;52.286;20.930;2022-12-29T08:19:22;8.40;;;4.40;;
30723;SDS011;17473;52.286;20.930;2022-12-29T08:21:49;9.27;;;4.33;;
30723;SDS011;17473;52.286;20.930;2022-12-29T08:24:17;8.47;;;4.60;;
30723;SDS011;17473;52.286;20.930;2022-12-29T08:26:44;10.83;;;4.23;;
30723;SDS011;17473;52.286;20.930;2022-12-29T08:29:11;8.27;;;4.67;;
30723;SDS011;17473;52.286;20.930;2022-12-29T08:31:38;7.70;;;4.40;;
30723;SDS011;17473;52.286;20.930;2022-12-29T08:34:05;9.47;;;5.13;;
30723;SDS011;17473;52.286;20.930;2022-12-29T08:36:32;7.10;;;4.70;;
30723;SDS011;17473;52.286;20.930;2022-12-29T08:38:59;8.47;;;4.30;;
30723;SDS011;17473;52.286;20.930;2022-12-29T08:41:27;10.87;;;4.53;;
30723;SDS011;17473;52.286;20.930;2022-12-29T08:43:54;8.13;;;4.70;;
30723;SDS011;17473;52.286;20.930;2022-12-29T08:46:21;7.87;;;4.70;;
30723;SDS011;17473;52.286;20.930;2022-12-29T08:48:48;10.07;;;4.37;;
30723;SDS011;17473;52.286;20.930;2022-12-29T08:51:15;8.17;;;4.40;;
30723;SDS011;17473;52.286;20.930;2022-12-29T08:53:49;7.50;;;4.77;;
30723;SDS011;17473;52.286;20.930;2022-12-29T08:56:17;8.80;;;4.40;;
30723;SDS011;17473;52.286;20.930;2022-12-29T08:58:44;7.30;;;4.60;;
30723;SDS011;17473;52.286;20.930;2022-12-29T09:01:11;8.13;;;4.27;;
30723;SDS011;17473;52.286;20.930;2022-12-29T09:03:38;8.23;;;4.70;;
30723;SDS011;17473;52.286;20.930;2022-12-29T09:06:25;10.50;;;4.40;;
30723;SDS011;17473;52.286;20.930;2022-12-29T09:08:53;7.50;;;4.80;;
30723;SDS011;17473;52.286;20.930;2022-12-29T09:11:21;10.27;;;4.90;;
30723;SDS011;17473;52.286;20.930;2022-12-29T09:13:51;9.77;;;5.20;;
30723;SDS011;17473;52.286;20.930;2022-12-29T09:16:21;10.53;;;5.07;;
30723;SDS011;17473;52.286;20.930;2022-12-29T09:18:49;10.20;;;4.80;;
30723;SDS011;17473;52.286;20.930;2022-12-29T09:21:17;7.10;;;4.63;;
30723;SDS011;17473;52.286;20.930;2022-12-29T09:23:44;7.60;;;3.87;;
30723;SDS011;17473;52.286;20.930;2022-12-29T09:26:11;8.47;;;5.47;;
30723;SDS011;17473;52.286;20.930;2022-12-29T09:28:38;11.27;;;5.07;;
30723;SDS011;17473;52.286;20.930;2022-12-29T09:31:06;11.60;;;5.37;;
30723;SDS011;17473;52.286;20.930;2022-12-29T09:33:33;11.47;;;6.00;;
30723;SDS011;17473;52.286;20.930;2022-12-29T09:36:01;10.50;;;6.00;;
30723;SDS011;17473;52.286;20.930;2022-12-29T09:38:28;10.30;;;5.23;;
30723;SDS011;17473;52.286;20.930;2022-12-29T09:41:06;13.33;;;5.67;;
30723;SDS011;17473;52.286;20.930;2022-12-29T09:43:56;9.13;;;5.37;;
30723;SDS011;17473;52.286;20.930;2022-12-29T09:46:39;9.77;;;4.87;;
30723;SDS011;17473;52.286;20.930;2022-12-29T09:49:16;8.73;;;5.10;;
30723;SDS011;17473;52.286;20.930;2022-12-29T09:52:09;10.97;;;5.00;;
30723;SDS011;17473;52.286;20.930;2022-12-29T09:54:58;12.93;;;4.87;;
30723;SDS011;17473;52.286;20.930;2022-12-29T09:57:42;9.37;;;5.07;;
30723;SDS011;17473;52.286;20.930;2022-12-29T10:00:34;10.77;;;5.10;;
30723;SDS011;17473;52.286;20.930;2022-12-29T10:03:13;7.47;;;4.47;;
30723;SDS011;17473;52.286;20.930;2022-12-29T10:05:48;12.37;;;4.60;;
30723;SDS011;17473;52.286;20.930;2022-12-29T10:15:38;9.30;;;5.30;;
30723;SDS011;17473;52.286;20.930;2022-12-29T10:24:41;15.57;;;5.13;;
30723;SDS011;17473;52.286;20.930;2022-12-29T10:27:12;8.60;;;4.33;;
30723;SDS011;17473;52.286;20.930;2022-12-29T10:29:44;11.97;;;4.63;;
30723;SDS011;17473;52.286;20.930;2022-12-29T10:32:23;8.50;;;5.03;;
30723;SDS011;17473;52.286;20.930;2022-12-29T10:35:11;9.60;;;5.47;;
30723;SDS011;17473;52.286;20.930;2022-12-29T10:37:49;9.40;;;5.10;;
30723;SDS011;17473;52.286;20.930;2022-12-29T10:41:05;12.30;;;4.70;;
30723;SDS011;17473;52.286;20.930;2022-12-29T10:46:25;9.30;;;4.37;;
30723;SDS011;17473;52.286;20.930;2022-12-29T10:48:56;8.97;;;4.43;;
30723;SDS011;17473;52.286;20.930;2022-12-29T10:51:24;8.13;;;4.80;;
30723;SDS011;17473;52.286;20.930;2022-12-29T10:54:01;7.07;;;4.67;;
30723;SDS011;17473;52.286;20.930;2022-12-29T10:57:03;10.77;;;5.70;;
30723;SDS011;17473;52.286;20.930;2022-12-29T10:59:41;11.37;;;5.20;;
30723;SDS011;17473;52.286;20.930;2022-12-29T11:07:31;8.20;;;4.80;;
30723;SDS011;17473;52.286;20.930;2022-12-29T11:10:20;8.67;;;4.60;;
30723;SDS011;17473;52.286;20.930;2022-12-29T11:13:01;7.60;;;4.23;;
30723;SDS011;17473;52.286;20.930;2022-12-29T11:15:45;9.33;;;5.40;;
30723;SDS011;17473;52.286;20.930;2022-12-29T11:18:18;13.63;;;5.13;;
30723;SDS011;17473;52.286;20.930;2022-12-29T11:20:50;12.53;;;5.77;;
30723;SDS011;17473;52.286;20.930;2022-12-29T11:26:24;13.50;;;5.27;;
30723;SDS011;17473;52.286;20.930;2022-12-29T11:31:56;11.60;;;5.47;;
30723;SDS011;17473;52.286;20.930;2022-12-29T11:34:27;10.63;;;5.77;;
30723;SDS011;17473;52.286;20.930;2022-12-29T11:37:00;22.00;;;5.73;;
30723;SDS011;17473;52.286;20.930;2022-12-29T11:39:39;10.63;;;5.30;;
30723;SDS011;17473;52.286;20.930;2022-12-29T11:42:16;13.40;;;5.23;;
30723;SDS011;17473;52.286;20.930;2022-12-29T11:44:48;8.87;;;5.23;;
30723;SDS011;17473;52.286;20.930;2022-12-29T11:47:35;11.37;;;5.97;;
30723;SDS011;17473;52.286;20.930;2022-12-29T11:50:04;9.37;;;4.50;;
30723;SDS011;17473;52.286;20.930;2022-12-29T11:52:34;9.33;;;5.60;;
30723;SDS011;17473;52.286;20.930;2022-12-29T11:55:06;9.77;;;5.13;;
30723;SDS011;17473;52.286;20.930;2022-12-29T21:05:11;14.27;;;7.80;;
30723;SDS011;17473;52.286;20.930;2022-12-29T21:07:49;16.93;;;7.83;;
30723;SDS011;17473;52.286;20.930;2022-12-29T21:10:17;13.43;;;8.47;;
30723;SDS011;17473;52.286;20.930;2022-12-29T21:12:44;16.67;;;8.53;;
30723;SDS011;17473;52.286;20.930;2022-12-29T21:15:13;15.37;;;7.87;;
30723;SDS011;17473;52.286;20.930;2022-12-29T21:17:41;15.30;;;8.47;;
30723;SDS011;17473;52.286;20.930;2022-12-29T21:20:11;14.13;;;8.07;;
30723;SDS011;17473;52.286;20.930;2022-12-29T21:22:48;17.80;;;8.17;;
30723;SDS011;17473;52.286;20.930;2022-12-29T21:25:15;16.43;;;8.20;;
30723;SDS011;17473;52.286;20.930;2022-12-29T21:27:42;16.50;;;8.03;;
30723;SDS011;17473;52.286;20.930;2022-12-29T21:30:09;18.47;;;8.07;;
30723;SDS011;17473;52.286;20.930;2022-12-29T21:32:37;15.83;;;8.50;;
30723;SDS011;17473;52.286;20.930;2022-12-29T21:35:06;15.67;;;7.90;;
30723;SDS011;17473;52.286;20.930;2022-12-29T21:37:34;15.77;;;8.33;;
30723;SDS011;17473;52.286;20.930;2022-12-29T21:40:02;13.50;;;8.23;;
30723;SDS011;17473;52.286;20.930;2022-12-29T21:42:30;14.30;;;7.67;;
30723;SDS011;17473;52.286;20.930;2022-12-29T21:44:57;14.23;;;8.33;;
30723;SDS011;17473;52.286;20.930;2022-12-29T21:47:46;13.63;;;8.20;;
30723;SDS011;17473;52.286;20.930;2022-12-29T21:50:32;12.60;;;7.17;;
30723;SDS011;17473;52.286;20.930;2022-12-29T21:53:23;13.40;;;7.73;;
30723;SDS011;17473;52.286;20.930;2022-12-29T21:56:10;19.93;;;8.30;;
30723;SDS011;17473;52.286;20.930;2022-12-29T21:58:48;15.87;;;8.33;;
30723;SDS011;17473;52.286;20.930;2022-12-29T22:01:36;16.83;;;8.73;;
30723;SDS011;17473;52.286;20.930;2022-12-29T22:04:23;15.73;;;8.27;;
30723;SDS011;17473;52.286;20.930;2022-12-29T22:07:10;17.20;;;8.23;;
30723;SDS011;17473;52.286;20.930;2022-12-29T22:09:57;16.03;;;8.50;;
30723;SDS011;17473;52.286;20.930;2022-12-29T22:12:42;16.53;;;8.27;;
30723;SDS011;17473;52.286;20.930;2022-12-29T22:15:32;16.33;;;8.23;;
30723;SDS011;17473;52.286;20.930;2022-12-29T22:18:03;15.60;;;9.00;;
30723;SDS011;17473;52.286;20.930;2022-12-29T22:20:31;18.87;;;9.63;;
30723;SDS011;17473;52.286;20.930;2022-12-29T22:23:01;14.87;;;8.33;;
30723;SDS011;17473;52.286;20.930;2022-12-29T22:25:28;16.07;;;8.60;;
30723;SDS011;17473;52.286;20.930;2022-12-29T22:27:55;20.57;;;9.13;;
30723;SDS011;17473;52.286;20.930;2022-12-29T22:30:28;16.00;;;8.67;;
30723;SDS011;17473;52.286;20.930;2022-12-29T22:32:55;15.87;;;8.17;;
30723;SDS011;17473;52.286;20.930;2022-12-29T22:35:24;14.80;;;8.47;;
30723;SDS011;17473;52.286;20.930;2022-12-29T22:37:51;13.87;;;8.03;;
30723;SDS011;17473;52.286;20.930;2022-12-29T22:40:18;18.17;;;8.13;;
30723;SDS011;17473;52.286;20.930;2022-12-29T22:42:45;12.57;;;8.13;;
30723;SDS011;17473;52.286;20.930;2022-12-29T22:45:12;17.57;;;8.13;;
30723;SDS011;17473;52.286;20.930;2022-12-29T22:47:40;13.70;;;7.40;;
30723;SDS011;17473;52.286;20.930;2022-12-29T22:50:07;15.70;;;8.37;;
30723;SDS011;17473;52.286;20.930;2022-12-29T22:52:35;16.90;;;7.43;;
30723;SDS011;17473;52.286;20.930;2022-12-29T22:55:02;16.00;;;7.93;;
30723;SDS011;17473;52.286;20.930;2022-12-29T22:57:32;16.57;;;8.10;;
30723;SDS011;17473;52.286;20.930;2022-12-29T23:00:01;18.10;;;8.37;;
30723;SDS011;17473;52.286;20.930;2022-12-29T23:02:31;13.43;;;7.77;;
30723;SDS011;17473;52.286;20.930;2022-12-29T23:04:59;14.37;;;7.87;;
30723;SDS011;17473;52.286;20.930;2022-12-29T23:07:32;13.97;;;8.40;;
30723;SDS011;17473;52.286;20.930;2022-12-29T23:10:01;14.60;;;8.33;;
30723;SDS011;17473;52.286;20.930;2022-12-29T23:12:30;20.33;;;9.40;;
30723;SDS011;17473;52.286;20.930;2022-12-29T23:14:57;19.43;;;8.23;;
30723;SDS011;17473;52.286;20.930;2022-12-29T23:17:24;13.20;;;7.73;;
30723;SDS011;17473;52.286;20.930;2022-12-29T23:19:52;13.97;;;8.57;;
30723;SDS011;17473;52.286;20.930;2022-12-29T23:22:19;13.23;;;8.13;;
30723;SDS011;17473;52.286;20.930;2022-12-29T23:24:48;12.90;;;8.13;;
30723;SDS011;17473;52.286;20.930;2022-12-29T23:27:15;14.30;;;7.33;;
30723;SDS011;17473;52.286;20.930;2022-12-29T23:29:42;15.23;;;8.33;;
30723;SDS011;17473;52.286;20.930;2022-12-29T23:32:09;16.67;;;8.13;;
30723;SDS011;17473;52.286;20.930;2022-12-29T23:34:36;15.13;;;7.90;;
30723;SDS011;17473;52.286;20.930;2022-12-29T23:37:03;13.13;;;7.63;;
30723;SDS011;17473;52.286;20.930;2022-12-29T23:39:31;12.17;;;7.43;;
30723;SDS011;17473;52.286;20.930;2022-12-29T23:41:58;10.98;;;7.30;;
30723;SDS011;17473;52.286;20.930;2022-12-29T23:44:25;13.10;;;7.63;;
30723;SDS011;17473;52.286;20.930;2022-12-29T23:46:52;15.37;;;8.70;;
30723;SDS011;17473;52.286;20.930;2022-12-29T23:49:19;13.47;;;7.83;;
30723;SDS011;17473;52.286;20.930;2022-12-29T23:51:46;15.20;;;7.90;;
30723;SDS011;17473;52.286;20.930;2022-12-29T23:54:13;13.90;;;8.07;;
30723;SDS011;17473;52.286;20.930;2022-12-29T23:56:40;14.50;;;7.97;;
30723;SDS011;17473;52.286;20.930;2022-12-29T23:59:07;14.03;;;8.27;;
